Worland, WY

2:23 PM MDT on July 30, 2014 (GMT -0600)
Worland Municipal (KWRL) Elev 4226 ft | 43.97 °N, 107.95 °W | Change Station

Current weather conditions updated 30 minutes ago

Clear
Clear
78 °F
Feels Like 78 °F
N
0
Wind Variable Wind from North

Today is forecast to be Warmer than yesterday.

Today
High -- | Low -- °F
--% Chance of Precip.
Yesterday
High -- | Low -- °F
Precip. -- in
5:57 AM 8:37 PM
Waxing Crescent, 13% visible
Pressure 30.14 in
Visibility 10.0 miles
Clouds Clear
Dew Point 40 °F
Humidity 25%
Rainfall 0.00 in
Snow Depth Not available.
UV 11 out of 12
Pollen 6.60 out of 12
Air Quality Not available.
Flu Activity Not available.
METAR KWRL 301953Z AUTO 00000KT 10SM CLR 26/04 A3024 RMK AO2 SLP206 T02560044

More Conditions Fewer Conditions

Pressure 30.14 in
Visibility 10.0 miles
Clouds Clear
Dew Point 40 °F
Humidity 25%
Rainfall 0.00 in
Snow Depth Not available.
UV 11 out of 12
Pollen 6.60 out of 12
Air Quality Not available.
Flu Activity Not available.
METAR KWRL 301953Z AUTO 00000KT 10SM CLR 26/04 A3024 RMK AO2 SLP206 T02560044

More Conditions Fewer Conditions

10-Day Weather Forecast

Almanac

Astronomy

Jul. 30, 2014 Rise Set
Actual Time 5:57 AM MDT 8:37 PM MDT
Civil Twilight 5:24 AM MDT 9:10 PM MDT
Nautical Twilight 4:43 AM MDT 9:52 PM MDT
Astronomical Twilight 3:55 AM MDT 10:39 PM MDT
Moon 9:41 AM MDT 10:11 PM MDT
Length of Visible Light 15h 46m
Length of Day
14h 39m
Tomorrow will be 2m 15s shorter.
Waxing Crescent, 13% of the Moon is Illuminated
Today
Waxing Crescent
Aug 3
First Quarter
Aug 10
Full
Aug 17
Last Quarter
Aug 25
New

Today's Extremes

State Highs State Lows

Community

WunderPhotos

Upload Photos

1,739,182 photos uploaded!

WunderBlogs® & News

Nearby

Snow Depth

Station Depth Elevation
Sucker Creek 0 in 8880 ft
St. Lawrence Alt 0 in 8620 ft
South Pass 0 in 9040 ft
Sylvan Road 0 in 7120 ft
Big Sandy Opening 1 in 9080 ft

Earthquake Activity

City Distance Mag. Time & Date
No recent earthquake activity has been reported nearby.
Minimum magnitude displayed is 2.5.

Coastal Water Temperatures

Place Temperature
No Stations Reporting

Nearby Weather Stations

Station Location Temp. Heat Index Dew Point Humidity Wind Precip. Elev Updated Type
Basin, WY 84.5 °F 83 °F 52 °F 33% East  at  1.0 mph 0.00 in / hr 4537 ft 2:18 PM MDT Normal

Show More Stations Show Fewer Stations